Time;durP1;ratioP1;P1;durP2;ratioP2;P2;SDS_P1;SDS_P2;PMS_P1;PMS_P2;Temp;Humidity;BMP_temperature;BMP_pressure;BME280_temperature;BME280_humidity;BME280_pressure;Samples;Min_cycle;Max_cycle;Signal;HPM_P1;HPM_P2
2023/07/23 00:01:02;;;;;;;8.50;3.13;;;17.80;99.90;;;;;;5074509;28;20175;-41
2023/07/23 00:03:30;;;;;;;8.93;3.53;;;17.80;99.90;;;;;;5074667;28;20242;-38
2023/07/23 00:06:06;;;;;;;4.60;3.37;;;17.80;1.00;;;;;;5073669;28;20273;-39
2023/07/23 00:08:56;;;;;;;7.80;3.47;;;17.80;1.00;;;;;;5038881;28;20195;-40
2023/07/23 00:11:30;;;;;;;8.37;3.47;;;17.80;1.00;;;;;;5054859;28;20187;-41
2023/07/23 00:14:46;;;;;;;11.50;3.30;;;17.70;1.00;;;;;;5073314;28;20167;-40
2023/07/23 00:17:22;;;;;;;5.80;3.57;;;17.70;1.00;;;;;;5049771;28;20298;-41
2023/07/23 00:19:50;;;;;;;4.80;3.50;;;17.70;1.00;;;;;;5055291;28;20175;-42
2023/07/23 00:22:18;;;;;;;5.50;3.60;;;17.70;1.00;;;;;;5055703;28;20266;-41
2023/07/23 00:24:50;;;;;;;4.70;3.10;;;17.60;1.00;;;;;;5055498;28;20630;-40
2023/07/23 00:27:30;;;;;;;5.37;3.30;;;17.60;1.00;;;;;;5055499;28;20256;-40
2023/07/23 00:29:59;;;;;;;3.87;3.33;;;17.60;1.00;;;;;;5073249;28;20179;-40
2023/07/23 00:32:28;;;;;;;10.90;4.07;;;17.60;1.00;;;;;;5055548;28;20184;-38
2023/07/23 00:34:58;;;;;;;4.73;3.47;;;17.60;1.00;;;;;;5055555;28;20183;-41
2023/07/23 00:37:27;;;;;;;9.87;3.90;;;17.50;1.00;;;;;;5039053;28;20207;-40
2023/07/23 00:39:58;;;;;;;7.60;3.63;;;17.50;1.00;;;;;;5055247;28;20201;-41
2023/07/23 00:42:26;;;;;;;5.07;3.57;;;17.50;1.00;;;;;;5055135;28;20268;-40
2023/07/23 00:44:54;;;;;;;6.30;3.77;;;17.50;1.00;;;;;;5055036;28;20186;-41
2023/07/23 00:47:24;;;;;;;5.17;3.47;;;17.50;1.00;;;;;;5056144;28;20184;-41
2023/07/23 00:49:53;;;;;;;5.67;3.57;;;17.40;1.00;;;;;;5072991;28;20172;-39
2023/07/23 00:52:21;;;;;;;7.80;3.73;;;17.40;1.00;;;;;;5073433;28;20263;-39
2023/07/23 00:54:48;;;;;;;8.37;3.50;;;17.40;1.00;;;;;;5038619;28;20187;-39
2023/07/23 00:57:20;;;;;;;5.10;3.60;;;17.40;1.00;;;;;;5054846;28;20214;-40
2023/07/23 00:59:57;;;;;;;6.33;4.20;;;17.40;1.00;;;;;;5055105;28;20180;-40
2023/07/23 01:02:34;;;;;;;6.27;3.80;;;17.40;1.00;;;;;;5054887;28;20179;-39
2023/07/23 01:05:04;;;;;;;4.33;3.70;;;17.30;1.00;;;;;;5072587;28;20246;-39
2023/07/23 01:07:37;;;;;;;5.70;3.63;;;17.30;1.00;;;;;;5054790;28;20199;-40
2023/07/23 01:10:06;;;;;;;4.93;3.40;;;17.20;1.00;;;;;;5039211;28;20188;-39
2023/07/23 01:12:39;;;;;;;6.17;3.60;;;17.20;1.00;;;;;;5072804;28;20180;-41
2023/07/23 01:15:07;;;;;;;8.20;3.93;;;17.20;99.90;;;;;;5054933;28;20244;-41
2023/07/23 01:17:42;;;;;;;5.57;4.07;;;17.20;99.90;;;;;;5054798;28;20674;-41
2023/07/23 01:20:25;;;;;;;4.63;3.87;;;17.10;99.90;;;;;;5055743;28;20160;-42
2023/07/23 01:22:55;;;;;;;6.27;3.27;;;17.10;99.90;;;;;;5042028;28;20237;-38
2023/07/23 01:25:27;;;;;;;5.07;3.77;;;17.10;99.90;;;;;;5076293;28;20203;-41
2023/07/23 01:27:58;;;;;;;4.47;3.53;;;17.10;99.90;;;;;;5058408;28;20264;-41
2023/07/23 01:30:42;;;;;;;5.17;3.67;;;17.10;99.90;;;;;;5058615;28;20168;-40
2023/07/23 01:33:25;;;;;;;5.40;3.97;;;17.00;99.90;;;;;;5058917;28;20191;-40
2023/07/23 01:36:16;;;;;;;5.20;4.07;;;17.00;99.90;;;;;;5058652;28;20195;-42
2023/07/23 01:38:55;;;;;;;4.30;3.53;;;17.00;99.90;;;;;;5059728;28;20211;-40
2023/07/23 01:41:47;;;;;;;5.13;3.73;;;17.00;99.90;;;;;;5043624;28;20213;-40
2023/07/23 01:45:06;;;;;;;4.30;3.37;;;17.00;99.90;;;;;;5044567;28;20598;-41
2023/07/23 01:48:11;;;;;;;4.37;3.63;;;16.90;99.90;;;;;;5058649;28;20261;-40
2023/07/23 01:51:27;;;;;;;4.50;3.83;;;16.90;99.90;;;;;;5075750;28;20164;-38
2023/07/23 01:54:24;;;;;;;8.20;3.63;;;16.90;99.90;;;;;;5053213;28;20193;-41
2023/07/23 01:57:53;;;;;;;4.87;3.10;;;16.90;99.90;;;;;;5053085;28;20230;-40
2023/07/23 02:03:58;;;;;;;4.60;3.70;;;16.90;99.90;;;;;;5076313;28;20182;-41
2023/07/23 02:06:28;;;;;;;5.80;4.27;;;16.80;99.90;;;;;;5043025;28;20286;-39
2023/07/23 02:08:57;;;;;;;5.00;3.63;;;16.80;99.90;;;;;;5076212;28;20179;-40
2023/07/23 02:11:33;;;;;;;5.77;3.50;;;16.80;99.90;;;;;;5058324;28;20179;-39
2023/07/23 02:14:21;;;;;;;6.47;4.07;;;16.80;76.10;;;;;;5058504;28;20298;-39
2023/07/23 02:16:59;;;;;;;6.43;3.47;;;16.80;90.70;;;;;;5076916;28;20265;-40
2023/07/23 02:19:33;;;;;;;7.20;3.57;;;16.80;1.00;;;;;;5059574;28;20163;-40
2023/07/23 02:22:09;;;;;;;7.03;3.83;;;16.80;1.00;;;;;;5058780;28;20152;-38
2023/07/23 02:24:50;;;;;;;6.60;3.70;;;16.80;1.00;;;;;;5042638;28;20711;-41
2023/07/23 02:27:28;;;;;;;5.67;3.73;;;16.80;1.00;;;;;;5041708;28;20179;-39
2023/07/23 02:29:55;;;;;;;5.00;3.60;;;16.80;55.00;;;;;;5057474;28;20174;-39
2023/07/23 02:32:28;;;;;;;6.00;3.87;;;16.80;1.00;;;;;;5057356;28;20175;-39
2023/07/23 02:34:56;;;;;;;5.97;3.60;;;16.80;1.00;;;;;;5056460;28;20191;-40
2023/07/23 02:37:23;;;;;;;6.83;3.73;;;16.90;1.00;;;;;;5041057;28;20574;-38
2023/07/23 02:39:59;;;;;;;7.40;3.83;;;16.80;1.00;;;;;;5075134;28;20194;-40
2023/07/23 02:42:44;;;;;;;4.63;3.30;;;16.90;1.00;;;;;;5061567;28;20270;-39
2023/07/23 02:45:18;;;;;;;6.50;3.70;;;16.90;99.90;;;;;;5077502;28;20197;-39
2023/07/23 02:47:56;;;;;;;6.00;3.67;;;16.90;99.90;;;;;;5094876;28;20254;-41
2023/07/23 02:50:25;;;;;;;4.90;3.73;;;16.90;1.00;;;;;;5078406;28;20170;-41
2023/07/23 02:53:01;;;;;;;4.27;3.20;;;16.90;99.90;;;;;;5077561;28;20235;-39
2023/07/23 02:55:30;;;;;;;5.37;3.60;;;17.00;99.90;;;;;;5095773;28;20243;-38
2023/07/23 02:58:04;;;;;;;6.30;3.83;;;16.90;99.90;;;;;;5076849;28;20307;-39
2023/07/23 03:00:33;;;;;;;6.13;3.57;;;17.00;99.90;;;;;;5094822;28;20645;-40
2023/07/23 03:03:06;;;;;;;4.07;3.30;;;17.00;1.00;;;;;;5077035;28;20171;-39
2023/07/23 03:05:37;;;;;;;9.23;3.50;;;17.10;99.90;;;;;;5076574;28;20203;-38
2023/07/23 03:08:03;;;;;;;4.60;3.43;;;17.10;1.00;;;;;;5095254;28;20171;-44
2023/07/23 03:10:30;;;;;;;5.53;3.80;;;17.20;99.90;;;;;;5095612;28;20664;-44
2023/07/23 03:12:55;;;;;;;4.77;3.20;;;17.20;99.90;;;;;;5076941;28;20240;-46
2023/07/23 03:15:22;;;;;;;7.17;3.17;;;17.20;99.90;;;;;;5095294;28;20605;-41
2023/07/23 03:17:50;;;;;;;10.63;2.93;;;17.20;1.00;;;;;;5073224;28;20701;-44
2023/07/23 03:20:16;;;;;;;4.30;2.73;;;17.20;1.00;;;;;;5089674;28;20206;-44
2023/07/23 03:22:41;;;;;;;5.17;3.17;;;17.20;1.00;;;;;;5076689;28;20221;-41
2023/07/23 03:25:08;;;;;;;17.00;2.73;;;17.30;99.90;;;;;;5095241;28;20535;-40
2023/07/23 03:27:34;;;;;;;3.93;3.00;;;17.30;99.90;;;;;;5076784;28;20179;-41
2023/07/23 03:29:59;;;;;;;3.53;2.73;;;17.50;1.00;;;;;;5095186;28;20171;-42
2023/07/23 03:32:25;;;;;;;4.77;2.40;;;17.50;99.90;;;;;;5076700;28;20179;-38
2023/07/23 03:34:51;;;;;;;4.50;3.00;;;17.60;99.90;;;;;;5076843;28;20174;-44
2023/07/23 03:37:17;;;;;;;7.87;2.87;;;17.70;1.00;;;;;;5094899;28;20661;-45
2023/07/23 03:39:42;;;;;;;4.00;2.67;;;17.80;99.90;;;;;;5095047;28;20190;-41
2023/07/23 03:42:08;;;;;;;4.47;2.60;;;17.90;99.90;;;;;;5095353;28;20206;-46
2023/07/23 03:44:34;;;;;;;3.73;2.60;;;17.90;99.90;;;;;;5076903;28;20201;-44
2023/07/23 03:47:15;;;;;;;6.63;2.80;;;18.00;99.90;;;;;;5095195;28;20534;-40
2023/07/23 03:49:42;;;;;;;4.33;2.50;;;18.00;1.00;;;;;;5094785;28;20190;-44
2023/07/23 03:52:08;;;;;;;4.53;2.40;;;18.00;1.00;;;;;;5094635;28;20170;-42
2023/07/23 03:54:34;;;;;;;6.00;2.30;;;18.10;1.00;;;;;;5076455;28;20232;-40
2023/07/23 03:57:00;;;;;;;5.37;2.73;;;18.10;1.00;;;;;;5094274;28;20217;-41
2023/07/23 03:59:34;;;;;;;4.27;2.40;;;18.10;99.90;;;;;;5094465;28;20183;-40
2023/07/23 04:02:00;;;;;;;4.70;2.80;;;18.10;99.90;;;;;;5094344;28;20186;-40
2023/07/23 04:04:25;;;;;;;3.57;2.60;;;18.10;99.90;;;;;;5093949;28;20647;-41
2023/07/23 04:06:51;;;;;;;3.63;2.47;;;18.10;99.90;;;;;;5075504;28;20309;-41
2023/07/23 04:09:18;;;;;;;2.87;2.40;;;18.20;99.90;;;;;;5093830;28;20178;-42
2023/07/23 04:11:44;;;;;;;9.67;2.50;;;18.20;99.90;;;;;;5075797;28;20723;-43
2023/07/23 04:14:10;;;;;;;7.87;2.47;;;18.20;1.00;;;;;;5075668;28;20179;-38
2023/07/23 04:16:36;;;;;;;6.90;2.30;;;18.20;1.00;;;;;;5094191;28;20259;-39
2023/07/23 04:19:01;;;;;;;3.83;2.20;;;18.20;1.00;;;;;;5093467;28;20634;-38
2023/07/23 04:21:27;;;;;;;5.73;2.27;;;18.20;1.00;;;;;;5094021;28;20182;-39
2023/07/23 04:23:57;;;;;;;6.10;2.50;;;18.20;99.90;;;;;;5075537;28;20193;-40
2023/07/23 04:26:26;;;;;;;6.00;2.47;;;18.30;1.00;;;;;;5075392;28;20739;-41
2023/07/23 04:28:51;;;;;;;4.73;2.70;;;18.30;6.60;;;;;;5093527;28;20185;-41
2023/07/23 04:31:18;;;;;;;5.00;2.03;;;18.30;1.00;;;;;;5075477;28;20273;-42
2023/07/23 04:33:44;;;;;;;4.33;2.07;;;18.30;1.00;;;;;;5093516;28;20179;-39
2023/07/23 04:36:10;;;;;;;2.43;1.93;;;18.30;1.00;;;;;;5075387;28;20251;-41
2023/07/23 04:38:36;;;;;;;3.17;2.00;;;18.40;99.90;;;;;;5093388;28;20215;-41
2023/07/23 04:41:02;;;;;;;5.13;2.10;;;18.30;1.00;;;;;;5092085;28;20186;-41
2023/07/23 04:43:28;;;;;;;3.20;1.90;;;18.40;1.00;;;;;;5093622;28;20190;-42
2023/07/23 04:45:54;;;;;;;2.37;2.00;;;18.40;1.00;;;;;;5075197;28;20202;-40
2023/07/23 04:48:19;;;;;;;2.97;1.97;;;18.40;1.00;;;;;;5075252;28;20186;-40
2023/07/23 04:50:45;;;;;;;4.87;2.27;;;18.40;1.00;;;;;;5093456;28;20189;-40
2023/07/23 04:53:11;;;;;;;2.27;1.73;;;18.40;99.90;;;;;;5093540;28;20638;-41
2023/07/23 04:55:37;;;;;;;5.87;2.20;;;18.50;1.00;;;;;;5071885;28;20208;-39
2023/07/23 04:58:03;;;;;;;3.33;1.97;;;18.40;1.00;;;;;;5088456;28;20203;-40
2023/07/23 05:00:29;;;;;;;6.93;2.00;;;18.40;1.00;;;;;;5079092;28;20212;-39
2023/07/23 05:02:55;;;;;;;3.80;1.80;;;18.40;91.50;;;;;;5097335;28;20565;-40
2023/07/23 05:05:20;;;;;;;9.60;2.60;;;18.40;99.90;;;;;;5097383;28;20194;-40
2023/07/23 05:07:46;;;;;;;5.87;2.20;;;18.40;99.90;;;;;;5097228;28;20198;-40
2023/07/23 05:10:12;;;;;;;6.60;2.10;;;18.40;99.90;;;;;;5097241;28;20516;-42
2023/07/23 05:12:39;;;;;;;5.57;2.23;;;18.40;1.00;;;;;;5097240;28;20187;-41
2023/07/23 05:15:12;;;;;;;2.70;1.70;;;18.50;99.90;;;;;;5097087;28;20175;-40
2023/07/23 05:17:39;;;;;;;5.00;1.83;;;18.50;1.00;;;;;;5078587;28;20210;-42
2023/07/23 05:20:08;;;;;;;2.17;1.57;;;18.50;99.90;;;;;;5095608;28;20224;-40
2023/07/23 05:22:39;;;;;;;3.93;2.40;;;18.50;1.00;;;;;;5078638;28;20262;-39
2023/07/23 05:25:05;;;;;;;5.53;1.70;;;18.60;99.90;;;;;;5096912;28;20182;-39
2023/07/23 05:27:31;;;;;;;3.07;2.03;;;18.50;1.00;;;;;;5062073;28;20186;-42
2023/07/23 05:29:57;;;;;;;5.83;2.20;;;18.60;1.00;;;;;;5096947;28;20183;-40
2023/07/23 05:32:23;;;;;;;4.90;2.57;;;18.60;1.00;;;;;;5075022;28;20179;-41
2023/07/23 05:34:49;;;;;;;4.73;1.90;;;18.60;1.00;;;;;;5069126;28;20248;-38
2023/07/23 05:37:14;;;;;;;3.13;2.00;;;18.60;1.00;;;;;;5078298;28;20183;-40
2023/07/23 05:39:40;;;;;;;7.33;1.80;;;18.60;1.00;;;;;;5096469;28;20194;-42
2023/07/23 05:42:06;;;;;;;8.30;1.90;;;18.60;1.00;;;;;;5078413;28;20201;-41
2023/07/23 05:44:32;;;;;;;3.70;2.20;;;18.60;1.00;;;;;;5078540;28;20182;-41
2023/07/23 05:46:57;;;;;;;3.80;2.23;;;18.60;1.00;;;;;;5096471;28;20199;-40
2023/07/23 05:49:24;;;;;;;6.07;2.43;;;18.60;99.90;;;;;;5096710;28;20190;-42
2023/07/23 05:51:50;;;;;;;4.20;1.90;;;18.70;99.90;;;;;;5096683;28;20171;-44
2023/07/23 05:54:16;;;;;;;2.80;2.00;;;18.70;1.00;;;;;;5078545;28;20175;-39
2023/07/23 05:56:42;;;;;;;2.63;2.03;;;18.70;99.90;;;;;;5077705;28;20616;-41
2023/07/23 05:59:08;;;;;;;2.67;2.27;;;18.80;1.00;;;;;;5078251;28;20206;-42
2023/07/23 06:01:34;;;;;;;3.03;2.00;;;18.80;99.90;;;;;;5097200;28;20183;-40
2023/07/23 06:03:59;;;;;;;5.77;2.20;;;18.80;99.90;;;;;;5096168;28;20179;-40
2023/07/23 06:06:25;;;;;;;3.97;2.73;;;18.80;99.90;;;;;;5096110;28;20206;-43
2023/07/23 06:08:51;;;;;;;5.70;2.43;;;18.80;99.90;;;;;;5094928;28;20274;-40
2023/07/23 06:11:16;;;;;;;4.53;2.63;;;18.80;99.90;;;;;;5096098;28;20684;-40
2023/07/23 06:13:42;;;;;;;5.47;2.40;;;18.80;1.00;;;;;;5095832;28;20186;-39
2023/07/23 06:16:08;;;;;;;3.57;2.23;;;18.80;99.90;;;;;;5096177;28;20205;-41
2023/07/23 06:18:36;;;;;;;4.30;2.50;;;18.90;99.90;;;;;;5095757;28;20206;-41
2023/07/23 06:21:03;;;;;;;2.67;1.90;;;18.90;1.00;;;;;;5096253;28;20606;-41
2023/07/23 06:23:28;;;;;;;2.70;2.10;;;18.90;99.90;;;;;;5095812;28;20591;-41
2023/07/23 06:25:55;;;;;;;4.17;2.00;;;18.90;99.90;;;;;;5096350;28;20202;-42
2023/07/23 06:28:21;;;;;;;4.00;2.40;;;18.90;99.90;;;;;;5094915;28;20186;-41
2023/07/23 06:30:50;;;;;;;3.43;1.93;;;18.90;99.90;;;;;;5096039;28;20215;-41
2023/07/23 06:33:16;;;;;;;3.43;1.83;;;18.90;99.90;;;;;;5061180;28;20191;-41
2023/07/23 06:35:45;;;;;;;4.50;2.10;;;18.90;99.90;;;;;;5077841;28;20268;-42
2023/07/23 06:38:12;;;;;;;2.63;1.93;;;18.90;99.90;;;;;;5096399;28;20241;-41
2023/07/23 06:40:43;;;;;;;8.00;2.33;;;19.00;99.90;;;;;;5077698;28;20211;-42
2023/07/23 06:43:10;;;;;;;2.10;1.90;;;19.00;1.00;;;;;;5096756;28;20558;-41
2023/07/23 06:45:36;;;;;;;2.93;1.77;;;19.00;90.60;;;;;;5077812;28;20595;-42
2023/07/23 06:48:05;;;;;;;3.93;1.93;;;19.00;49.60;;;;;;5096419;28;20210;-42
2023/07/23 06:50:31;;;;;;;2.10;1.90;;;19.10;99.90;;;;;;5095845;28;20175;-42
2023/07/23 06:52:57;;;;;;;2.50;2.13;;;19.10;1.00;;;;;;5095626;28;20213;-41
2023/07/23 06:55:23;;;;;;;2.00;1.80;;;19.20;1.00;;;;;;5096109;28;20209;-45
2023/07/23 06:57:48;;;;;;;3.50;2.03;;;19.20;99.90;;;;;;5077620;28;20210;-43
2023/07/23 07:00:15;;;;;;;1.53;1.43;;;19.30;14.20;;;;;;5095952;28;20171;-42
2023/07/23 07:02:41;;;;;;;3.37;2.20;;;19.40;99.90;;;;;;5096121;28;20626;-46
2023/07/23 07:05:07;;;;;;;3.97;2.00;;;19.40;99.90;;;;;;5095800;28;20167;-45
2023/07/23 07:07:33;;;;;;;2.50;1.97;;;19.40;1.00;;;;;;5077908;28;20179;-42
2023/07/23 07:09:59;;;;;;;3.70;2.20;;;19.40;1.00;;;;;;5095813;28;20221;-41
2023/07/23 07:12:24;;;;;;;6.97;2.00;;;19.40;48.30;;;;;;5077429;28;20191;-44
2023/07/23 07:14:50;;;;;;;4.23;2.03;;;19.40;1.00;;;;;;5095460;28;20206;-45
2023/07/23 07:17:16;;;;;;;4.23;1.93;;;19.40;1.00;;;;;;5077017;28;20236;-46
2023/07/23 07:19:42;;;;;;;3.30;1.70;;;19.30;1.00;;;;;;5077084;28;20171;-46
2023/07/23 07:22:07;;;;;;;4.03;1.80;;;19.30;99.90;;;;;;5095514;28;20228;-43
2023/07/23 07:24:33;;;;;;;4.57;1.90;;;19.20;64.30;;;;;;5095570;28;20625;-47
2023/07/23 07:26:59;;;;;;;3.30;1.80;;;19.20;1.00;;;;;;5095428;28;20240;-42
2023/07/23 07:29:25;;;;;;;3.23;2.03;;;19.20;99.90;;;;;;5095273;28;20255;-42
2023/07/23 07:31:51;;;;;;;9.33;2.60;;;19.10;99.90;;;;;;5076965;28;20642;-42
2023/07/23 07:34:17;;;;;;;4.97;2.33;;;19.10;1.00;;;;;;5095439;28;20642;-46
2023/07/23 07:36:44;;;;;;;12.37;2.40;;;19.00;99.90;;;;;;5095132;28;20194;-43
2023/07/23 07:39:10;;;;;;;6.90;2.03;;;18.90;99.90;;;;;;5060875;28;20271;-42
2023/07/23 07:41:36;;;;;;;7.60;2.13;;;18.90;99.90;;;;;;5095165;28;20171;-47
2023/07/23 07:44:01;;;;;;;17.77;3.10;;;18.80;1.00;;;;;;5076710;28;20179;-44
2023/07/23 07:46:27;;;;;;;19.00;3.20;;;18.70;1.00;;;;;;5095106;28;20558;-47
2023/07/23 07:48:53;;;;;;;11.73;2.03;;;18.70;99.90;;;;;;5095135;28;20623;-44
2023/07/23 07:51:18;;;;;;;8.93;2.20;;;18.60;1.00;;;;;;5076971;28;20183;-41
2023/07/23 07:53:45;;;;;;;10.63;2.40;;;18.60;1.00;;;;;;5076857;28;20182;-47
2023/07/23 07:56:17;;;;;;;4.33;2.60;;;18.50;94.60;;;;;;5094935;28;20225;-47
2023/07/23 07:58:44;;;;;;;3.17;2.30;;;18.40;99.90;;;;;;5095330;28;20183;-46
2023/07/23 08:01:10;;;;;;;6.70;2.17;;;18.40;99.90;;;;;;5095003;28;20529;-45
2023/07/23 08:03:36;;;;;;;8.33;3.00;;;18.40;99.90;;;;;;5095021;28;20179;-46
2023/07/23 08:06:03;;;;;;;4.50;2.17;;;18.40;99.90;;;;;;5095047;28;20688;-44
2023/07/23 08:08:32;;;;;;;2.67;1.87;;;18.40;1.00;;;;;;5094847;28;20177;-46
2023/07/23 08:11:00;;;;;;;2.43;1.90;;;18.40;99.90;;;;;;5095032;28;20232;-41
2023/07/23 08:13:27;;;;;;;2.80;1.90;;;18.50;1.00;;;;;;5077369;28;20581;-43
2023/07/23 08:15:54;;;;;;;1.90;1.50;;;18.60;1.00;;;;;;5094832;28;20198;-41
2023/07/23 08:18:20;;;;;;;7.30;2.20;;;18.60;99.90;;;;;;5094499;28;20281;-43
2023/07/23 08:20:46;;;;;;;2.53;1.97;;;18.70;1.00;;;;;;5094688;28;20186;-45
2023/07/23 08:23:12;;;;;;;4.57;2.17;;;18.60;1.00;;;;;;5095008;28;20167;-45
2023/07/23 08:25:39;;;;;;;3.20;2.00;;;18.60;1.00;;;;;;5094899;28;20217;-41
2023/07/23 08:28:06;;;;;;;4.97;1.90;;;18.60;1.00;;;;;;5094507;28;20251;-42
2023/07/23 08:30:32;;;;;;;7.30;2.30;;;18.50;1.00;;;;;;5094604;28;20179;-41
2023/07/23 08:33:01;;;;;;;7.13;1.93;;;18.40;1.00;;;;;;5078429;28;20596;-39
2023/07/23 08:35:28;;;;;;;4.03;1.80;;;18.40;1.00;;;;;;5098585;28;20210;-46
2023/07/23 08:37:56;;;;;;;6.97;2.63;;;18.40;1.00;;;;;;5098379;28;20220;-45
2023/07/23 08:40:25;;;;;;;18.73;2.57;;;18.50;1.00;;;;;;5097051;28;20534;-44
2023/07/23 08:42:53;;;;;;;11.03;2.93;;;18.60;1.00;;;;;;5079715;28;20300;-41
2023/07/23 08:45:37;;;;;;;11.60;2.47;;;18.70;1.00;;;;;;5097907;28;20191;-46
2023/07/23 08:48:19;;;;;;;12.33;2.93;;;18.70;1.00;;;;;;5079911;28;20589;-45
2023/07/23 08:50:48;;;;;;;3.60;2.03;;;18.80;1.00;;;;;;5098091;28;20182;-44
2023/07/23 08:53:15;;;;;;;2.90;1.80;;;18.80;1.00;;;;;;5080014;28;20714;-46
2023/07/23 08:55:43;;;;;;;2.50;1.93;;;18.80;1.00;;;;;;5080275;28;20194;-45
2023/07/23 08:58:16;;;;;;;11.13;2.17;;;18.80;1.00;;;;;;5097995;28;20234;-47
2023/07/23 09:00:43;;;;;;;3.33;1.77;;;18.90;1.00;;;;;;5080205;28;20167;-40
2023/07/23 09:03:11;;;;;;;5.93;1.83;;;18.90;1.00;;;;;;5098602;28;20175;-46
2023/07/23 09:05:39;;;;;;;2.93;2.13;;;19.00;99.90;;;;;;5098624;28;20210;-39
2023/07/23 09:08:05;;;;;;;2.27;1.60;;;19.10;99.90;;;;;;5097103;28;20175;-41
2023/07/23 09:10:30;;;;;;;2.67;1.77;;;19.10;99.90;;;;;;5098226;28;20305;-43
2023/07/23 09:12:56;;;;;;;2.00;1.70;;;19.10;1.00;;;;;;5098196;28;20214;-41
2023/07/23 09:15:22;;;;;;;3.40;1.30;;;19.10;1.00;;;;;;5079783;28;20297;-46
2023/07/23 09:17:51;;;;;;;2.33;1.67;;;19.10;99.90;;;;;;5079535;28;20213;-43
2023/07/23 09:20:18;;;;;;;4.13;1.60;;;19.10;99.90;;;;;;5079407;28;20198;-42
2023/07/23 09:22:47;;;;;;;1.40;1.30;;;19.10;99.90;;;;;;5096360;28;20175;-45
2023/07/23 09:25:13;;;;;;;1.40;1.30;;;19.10;1.00;;;;;;5078891;28;20199;-47
2023/07/23 09:27:42;;;;;;;3.37;1.40;;;19.20;1.00;;;;;;5097544;28;20190;-46
2023/07/23 09:30:20;;;;;;;2.53;1.50;;;19.30;99.90;;;;;;5097741;28;20209;-46
2023/07/23 09:32:59;;;;;;;1.87;1.40;;;19.30;99.90;;;;;;5079477;28;20200;-41
2023/07/23 09:35:29;;;;;;;1.60;1.33;;;19.30;99.90;;;;;;5079272;28;20217;-45
2023/07/23 09:37:57;;;;;;;1.70;1.50;;;19.30;99.90;;;;;;5097434;28;20199;-43
2023/07/23 09:40:35;;;;;;;1.53;1.40;;;19.30;1.00;;;;;;5097308;28;20162;-46
2023/07/23 09:43:01;;;;;;;2.60;1.27;;;19.40;1.00;;;;;;5078867;28;20689;-44
2023/07/23 09:45:34;;;;;;;2.57;1.17;;;19.50;1.00;;;;;;5097711;28;20589;-42
2023/07/23 09:48:01;;;;;;;1.83;1.30;;;19.60;99.90;;;;;;5097419;28;20224;-42
2023/07/23 09:50:27;;;;;;;1.57;1.47;;;19.60;99.90;;;;;;5097159;28;20197;-46
2023/07/23 09:52:53;;;;;;;1.83;1.37;;;19.70;1.00;;;;;;5097388;28;20588;-45
2023/07/23 09:55:20;;;;;;;2.87;1.30;;;19.80;99.90;;;;;;5078783;28;20297;-42
2023/07/23 09:57:53;;;;;;;2.43;1.30;;;19.90;99.90;;;;;;5079959;28;20217;-43
2023/07/23 10:00:19;;;;;;;1.67;1.00;;;20.00;99.90;;;;;;5078866;28;20178;-42
2023/07/23 10:02:49;;;;;;;2.60;1.50;;;20.10;99.90;;;;;;5097316;28;20385;-45
2023/07/23 10:05:17;;;;;;;3.33;1.20;;;20.20;54.00;;;;;;5078903;28;20205;-45
2023/07/23 10:07:46;;;;;;;1.97;1.00;;;20.30;99.90;;;;;;5062375;28;20186;-43
2023/07/23 10:10:16;;;;;;;3.33;1.20;;;20.40;1.00;;;;;;5097321;28;20657;-42
2023/07/23 10:12:42;;;;;;;1.70;1.27;;;20.40;1.00;;;;;;5078684;28;20232;-48
2023/07/23 10:15:08;;;;;;;1.73;1.03;;;20.50;1.00;;;;;;5078286;28;20183;-47
2023/07/23 10:17:42;;;;;;;1.73;1.20;;;20.40;1.00;;;;;;5079280;28;20175;-42
2023/07/23 10:20:12;;;;;;;1.83;1.27;;;20.40;1.00;;;;;;5096763;28;20181;-40
2023/07/23 10:22:39;;;;;;;1.17;1.00;;;20.40;1.00;;;;;;5095925;28;20171;-41
2023/07/23 10:25:25;;;;;;;1.43;1.30;;;20.40;1.00;;;;;;5094485;28;20175;-40
2023/07/23 10:27:57;;;;;;;1.70;1.10;;;20.40;1.00;;;;;;5077634;28;20179;-39
2023/07/23 10:30:23;;;;;;;1.80;1.13;;;20.50;1.00;;;;;;5077610;28;20266;-41
2023/07/23 10:33:11;;;;;;;1.50;1.13;;;20.60;99.90;;;;;;5077444;28;20179;-40
2023/07/23 10:35:52;;;;;;;4.40;1.13;;;20.60;99.90;;;;;;5094078;28;20690;-41
2023/07/23 15:38:06;;;;;;;3.00;1.67;;;24.70;99.90;;;;;;5111476;28;20756;-41
2023/07/23 15:40:33;;;;;;;6.30;2.07;;;24.80;1.00;;;;;;5097701;28;20171;-47
2023/07/23 16:56:42;;;;;;;1.03;0.57;;;23.60;1.00;;;;;;5106026;27;20360;-48
2023/07/23 16:59:07;;;;;;;1.27;0.60;;;23.40;99.90;;;;;;5118454;28;20304;-42
2023/07/23 17:01:33;;;;;;;0.60;0.60;;;23.30;99.90;;;;;;5118294;28;20227;-41
2023/07/23 17:03:59;;;;;;;1.70;0.63;;;23.20;1.00;;;;;;5118403;28;20181;-42
2023/07/23 17:06:25;;;;;;;2.53;0.63;;;23.10;1.00;;;;;;5117878;28;20193;-46
2023/07/23 18:27:59;;;;;;;0.63;0.57;;;21.20;1.00;;;;;;5051417;28;20478;-44
2023/07/23 18:30:24;;;;;;;1.47;0.67;;;21.10;1.00;;;;;;5112307;28;20203;-48
2023/07/23 18:32:51;;;;;;;0.60;0.50;;;21.00;1.00;;;;;;5117038;28;20179;-43
2023/07/23 18:35:18;;;;;;;3.13;0.60;;;20.90;1.00;;;;;;5115709;28;20305;-44
2023/07/23 18:37:44;;;;;;;0.77;0.60;;;20.80;1.00;;;;;;5117573;28;20277;-48
2023/07/23 18:40:10;;;;;;;0.73;0.50;;;20.60;1.00;;;;;;5117293;28;20249;-49
2023/07/23 18:42:36;;;;;;;0.87;0.50;;;20.60;1.00;;;;;;5115583;28;20186;-50
2023/07/23 18:45:03;;;;;;;1.63;0.40;;;20.50;1.00;;;;;;5116653;28;20178;-45
2023/07/23 18:47:29;;;;;;;2.90;0.67;;;20.40;1.00;;;;;;5116807;28;20178;-44
2023/07/23 18:49:54;;;;;;;0.40;0.40;;;20.40;1.00;;;;;;5098498;28;20555;-48
2023/07/23 18:52:20;;;;;;;0.90;0.50;;;20.30;1.00;;;;;;5117155;28;20159;-42
2023/07/23 18:54:46;;;;;;;0.50;0.50;;;20.20;1.00;;;;;;5115695;28;20190;-48
2023/07/23 18:57:11;;;;;;;0.60;0.50;;;20.20;1.00;;;;;;5098596;28;20217;-42
2023/07/23 18:59:37;;;;;;;0.50;0.50;;;20.20;5.90;;;;;;5117082;28;20201;-44
2023/07/23 19:02:03;;;;;;;2.33;0.60;;;20.10;4.00;;;;;;5099681;28;20190;-48
2023/07/23 19:04:38;;;;;;;0.63;0.50;;;20.10;10.50;;;;;;5116923;28;20178;-47
2023/07/23 19:07:04;;;;;;;1.33;0.60;;;20.00;1.00;;;;;;5115271;28;20229;-48
2023/07/23 19:09:30;;;;;;;0.60;0.50;;;20.00;4.00;;;;;;5116975;28;20648;-47
2023/07/23 19:11:56;;;;;;;3.60;0.63;;;19.90;9.20;;;;;;5116637;28;20684;-44
2023/07/23 19:14:22;;;;;;;1.60;0.70;;;19.90;6.20;;;;;;5116241;28;20170;-44
2023/07/23 19:16:47;;;;;;;2.20;0.60;;;19.90;10.30;;;;;;5097254;28;20202;-48
2023/07/23 19:19:13;;;;;;;1.80;0.67;;;19.80;8.10;;;;;;5116148;28;20669;-48
2023/07/23 19:21:39;;;;;;;1.13;0.77;;;19.90;5.00;;;;;;5116279;28;20254;-48
2023/07/23 19:24:05;;;;;;;0.70;0.70;;;19.80;14.30;;;;;;5097664;28;20182;-42
2023/07/23 19:26:31;;;;;;;1.30;0.77;;;19.70;14.50;;;;;;5116475;28;20209;-43
2023/07/23 19:28:57;;;;;;;1.53;0.80;;;19.70;14.30;;;;;;5115605;28;20202;-42
2023/07/23 19:31:22;;;;;;;2.90;1.03;;;19.70;15.00;;;;;;5097558;28;20196;-43
2023/07/23 19:33:48;;;;;;;1.83;0.77;;;19.70;9.30;;;;;;5115946;28;20261;-44
2023/07/23 19:36:14;;;;;;;2.07;0.80;;;19.70;6.20;;;;;;5096766;28;20206;-46
2023/07/23 19:38:39;;;;;;;1.30;1.03;;;19.70;12.10;;;;;;5097655;28;20244;-44
2023/07/23 19:41:05;;;;;;;1.20;0.90;;;19.60;17.50;;;;;;5115440;28;20209;-42
2023/07/23 19:43:31;;;;;;;1.00;0.87;;;19.60;9.30;;;;;;5115584;28;20182;-41
2023/07/23 19:45:57;;;;;;;2.73;0.97;;;19.60;21.90;;;;;;5114684;28;20212;-42
2023/07/23 19:48:22;;;;;;;9.77;1.50;;;19.60;10.90;;;;;;5114911;28;20183;-42
2023/07/23 19:50:48;;;;;;;1.47;1.30;;;19.60;16.60;;;;;;5114447;28;20183;-40
2023/07/23 19:53:14;;;;;;;5.20;2.13;;;19.50;19.60;;;;;;5097171;28;20201;-42
2023/07/23 19:55:39;;;;;;;4.30;1.50;;;19.60;20.30;;;;;;5114377;28;20273;-41
2023/07/23 19:58:06;;;;;;;3.20;1.30;;;19.50;12.70;;;;;;5113052;28;20217;-42
2023/07/23 20:00:31;;;;;;;2.40;1.27;;;19.50;24.50;;;;;;5096069;28;20562;-43
2023/07/23 20:02:57;;;;;;;1.50;1.30;;;19.50;23.60;;;;;;5096868;28;20189;-42
2023/07/23 20:05:23;;;;;;;4.17;1.30;;;19.50;30.40;;;;;;5096674;28;20229;-47
2023/07/23 20:07:48;;;;;;;1.97;1.40;;;19.50;32.30;;;;;;5096265;28;20622;-48
2023/07/23 20:10:15;;;;;;;3.13;1.47;;;19.40;29.60;;;;;;5114040;28;20235;-47
2023/07/23 20:12:41;;;;;;;1.73;1.50;;;19.40;30.10;;;;;;5096221;28;20182;-46
2023/07/23 20:15:07;;;;;;;1.40;1.20;;;19.40;21.80;;;;;;5114304;28;20253;-46
2023/07/23 20:17:32;;;;;;;4.50;1.60;;;19.40;29.60;;;;;;5114042;28;20192;-46
2023/07/23 20:19:58;;;;;;;2.30;1.60;;;19.30;23.10;;;;;;5113880;28;20209;-48
2023/07/23 20:22:24;;;;;;;2.60;1.43;;;19.30;24.50;;;;;;5114001;28;20175;-47
2023/07/23 20:24:50;;;;;;;5.90;1.57;;;19.30;23.40;;;;;;5095401;28;20737;-47
2023/07/23 20:27:17;;;;;;;3.73;1.80;;;19.30;29.30;;;;;;5113412;28;20185;-43
2023/07/23 20:29:44;;;;;;;2.33;1.70;;;19.30;31.80;;;;;;5113707;28;20237;-44
2023/07/23 20:32:10;;;;;;;2.60;1.93;;;19.30;33.70;;;;;;5079063;28;20186;-43
2023/07/23 20:34:36;;;;;;;3.37;1.90;;;19.20;36.30;;;;;;5114490;28;20190;-42
2023/07/23 20:37:02;;;;;;;5.43;2.10;;;19.30;45.20;;;;;;5095775;28;20225;-43